createdAt,value
2023-03-27T00:00:57.024Z,56.76
2023-03-27T00:05:01.778Z,57.27
2023-03-27T00:09:08.437Z,57.40
2023-03-27T00:13:11.489Z,57.78
2023-03-27T00:17:14.511Z,57.84
2023-03-27T00:21:17.801Z,58.04
2023-03-27T00:25:23.528Z,58.12
2023-03-27T00:29:27.752Z,58.03
2023-03-27T00:33:30.891Z,58.21
2023-03-27T00:37:34.059Z,58.16
2023-03-27T00:41:38.744Z,58.45
2023-03-27T00:45:42.087Z,58.25
2023-03-27T00:49:45.893Z,58.38
2023-03-27T00:53:50.365Z,58.69
2023-03-27T00:58:00.177Z,58.43
2023-03-27T01:02:04.462Z,58.89
2023-03-27T01:06:08.764Z,58.63
2023-03-27T01:10:13.229Z,59.23
2023-03-27T01:14:27.509Z,59.47
2023-03-27T01:18:45.039Z,59.31
2023-03-27T01:23:35.862Z,59.33
2023-03-27T01:28:05.160Z,59.45
2023-03-27T01:32:44.904Z,59.43
2023-03-27T01:37:06.285Z,60.13
2023-03-27T01:41:16.916Z,59.45
2023-03-27T01:45:24.855Z,59.79
2023-03-27T01:49:32.113Z,59.63
2023-03-27T01:53:39.874Z,60.14
2023-03-27T01:57:50.277Z,59.90
2023-03-27T02:02:00.031Z,59.79
2023-03-27T02:06:08.779Z,60.53
2023-03-27T02:10:21.709Z,60.46
2023-03-27T02:14:29.908Z,60.68
2023-03-27T02:18:37.292Z,60.79
2023-03-27T02:22:40.669Z,60.90
2023-03-27T02:26:44.797Z,60.84
2023-03-27T02:31:05.787Z,60.89
2023-03-27T02:35:35.595Z,61.05
2023-03-27T02:39:48.910Z,61.24
2023-03-27T02:44:02.095Z,61.59
2023-03-27T02:48:35.474Z,61.48
2023-03-27T02:52:44.576Z,61.78
2023-03-27T02:56:51.895Z,61.83
2023-03-27T03:01:04.850Z,61.74
2023-03-27T03:05:22.238Z,62.14
2023-03-27T03:09:26.330Z,62.16
2023-03-27T03:13:29.498Z,62.68
2023-03-27T03:17:32.580Z,63.01
2023-03-27T03:21:37.695Z,63.20
2023-03-27T03:31:44.272Z,63.48
2023-03-27T03:35:49.090Z,63.74
2023-03-27T03:40:04.837Z,63.91
2023-03-27T03:44:08.163Z,64.45
2023-03-27T03:48:11.161Z,64.56
2023-03-27T03:52:14.236Z,64.08
2023-03-27T03:56:19.300Z,64.44
2023-03-27T04:00:26.870Z,64.61
2023-03-27T04:04:32.088Z,63.99
2023-03-27T04:08:42.760Z,64.46
2023-03-27T04:13:09.696Z,64.19
2023-03-27T04:17:20.663Z,64.43
2023-03-27T04:21:26.532Z,64.79
2023-03-27T04:25:30.080Z,64.64
2023-03-27T04:29:36.332Z,64.88
2023-03-27T04:33:46.695Z,64.56
2023-03-27T04:38:20.157Z,64.62
2023-03-27T04:42:28.126Z,64.66
2023-03-27T04:46:32.930Z,64.60
2023-03-27T04:50:44.116Z,65.53
2023-03-27T04:54:50.552Z,65.27
2023-03-27T04:58:54.258Z,65.21
2023-03-27T05:03:01.090Z,65.12
2023-03-27T05:07:13.164Z,65.25
2023-03-27T05:11:17.051Z,65.04
2023-03-27T05:15:22.771Z,65.28
2023-03-27T05:19:27.293Z,65.27
2023-03-27T05:23:36.571Z,65.53
2023-03-27T05:27:45.613Z,65.44
2023-03-27T05:31:48.723Z,65.47
2023-03-27T05:36:12.596Z,65.46
2023-03-27T05:40:20.994Z,65.43
2023-03-27T05:50:42.713Z,65.37
2023-03-27T05:54:57.989Z,65.19
2023-03-27T05:59:02.328Z,64.80
2023-03-27T06:03:09.676Z,64.77
2023-03-27T06:07:31.286Z,64.83
2023-03-27T06:11:41.138Z,64.88
2023-03-27T06:15:44.990Z,64.75
2023-03-27T06:19:57.984Z,65.09
2023-03-27T06:24:01.173Z,64.76
2023-03-27T06:28:08.053Z,64.75
2023-03-27T06:32:17.795Z,65.11
2023-03-27T06:36:27.546Z,64.86
2023-03-27T06:40:35.342Z,64.86
2023-03-27T06:44:39.916Z,64.74
2023-03-27T06:48:51.124Z,64.68
2023-03-27T06:52:55.454Z,64.71
2023-03-27T06:57:24.652Z,64.58
2023-03-27T07:01:36.824Z,64.32
2023-03-27T07:06:07.346Z,64.48
2023-03-27T07:10:19.880Z,64.40
2023-03-27T07:14:24.252Z,64.30
2023-03-27T07:18:28.911Z,64.26
2023-03-27T07:22:32.164Z,64.43
2023-03-27T07:26:41.201Z,64.50
2023-03-27T07:30:55.744Z,64.36
2023-03-27T07:35:00.438Z,63.94
2023-03-27T07:39:26.677Z,64.06
2023-03-27T07:43:29.828Z,64.28
2023-03-27T07:47:34.610Z,64.26
2023-03-27T07:51:39.868Z,64.79
2023-03-27T07:55:43.062Z,64.67
2023-03-27T07:59:46.328Z,64.82
2023-03-27T08:03:59.476Z,65.40
2023-03-27T08:08:05.953Z,65.74
2023-03-27T08:12:20.498Z,66.08
2023-03-27T08:16:32.832Z,66.59
2023-03-27T08:20:36.792Z,66.30
2023-03-27T08:24:41.167Z,66.43
2023-03-27T08:28:48.066Z,66.89
2023-03-27T08:32:51.123Z,67.81
2023-03-27T08:36:54.835Z,67.57
2023-03-27T08:41:05.089Z,68.23
2023-03-27T08:45:20.736Z,69.06
2023-03-27T08:49:31.939Z,69.69
2023-03-27T08:53:50.651Z,69.83
2023-03-27T08:58:01.066Z,70.36
2023-03-27T09:02:12.540Z,71.69
2023-03-27T09:06:25.874Z,72.66
2023-03-27T09:10:36.886Z,73.04
2023-03-27T09:14:59.491Z,73.42
2023-03-27T09:19:09.404Z,74.30
2023-03-27T09:23:17.790Z,73.22
2023-03-27T09:27:42.442Z,72.44
2023-03-27T09:32:16.842Z,71.12
2023-03-27T09:36:20.213Z,70.62
2023-03-27T09:40:30.308Z,69.37
2023-03-27T09:44:38.324Z,70.40
2023-03-27T09:48:50.347Z,69.23
2023-03-27T09:53:08.474Z,68.60
2023-03-27T09:57:38.588Z,67.91
2023-03-27T10:01:48.236Z,67.37
2023-03-27T10:06:06.968Z,66.30
2023-03-27T10:10:22.290Z,67.58
2023-03-27T10:14:49.497Z,68.08
2023-03-27T10:19:01.475Z,68.96
2023-03-27T10:23:25.303Z,68.59
2023-03-27T10:27:31.139Z,69.51
2023-03-27T10:32:12.536Z,69.60
2023-03-27T10:36:37.971Z,69.51
2023-03-27T10:40:51.962Z,70.11
2023-03-27T10:45:09.666Z,67.74
2023-03-27T10:49:25.639Z,68.48
2023-03-27T10:53:37.337Z,67.99
2023-03-27T10:57:46.371Z,68.09
2023-03-27T11:01:54.606Z,68.46
2023-03-27T11:06:01.376Z,68.09
2023-03-27T11:10:17.891Z,67.30
2023-03-27T11:14:29.038Z,67.59
2023-03-27T11:18:37.359Z,66.82
2023-03-27T11:22:47.237Z,67.21
2023-03-27T11:27:14.354Z,68.10
2023-03-27T11:31:32.473Z,68.29
2023-03-27T11:35:39.486Z,68.26
2023-03-27T11:40:13.068Z,64.73
2023-03-27T11:44:15.990Z,63.41
2023-03-27T11:49:12.787Z,62.57
2023-03-27T11:53:35.977Z,61.89
2023-03-27T11:58:05.286Z,61.06
2023-03-27T12:02:49.665Z,61.39
2023-03-27T12:07:12.250Z,62.94
2023-03-27T12:11:19.928Z,63.00
2023-03-27T12:15:58.111Z,62.98
2023-03-27T12:20:48.760Z,63.41
2023-03-27T12:25:29.003Z,60.58
2023-03-27T12:30:02.280Z,60.39
2023-03-27T12:34:12.288Z,59.39
2023-03-27T12:38:23.996Z,59.72
2023-03-27T12:42:44.592Z,58.96
2023-03-27T12:51:19.972Z,57.54
2023-03-27T12:55:37.198Z,56.95
2023-03-27T13:00:02.489Z,55.67
2023-03-27T13:04:38.294Z,53.71
2023-03-27T13:09:02.390Z,51.44
2023-03-27T13:13:40.690Z,51.07
2023-03-27T13:18:18.605Z,48.23
2023-03-27T13:22:37.053Z,49.84
2023-03-27T13:27:04.186Z,47.79
2023-03-27T13:31:14.678Z,48.59
2023-03-27T13:36:08.179Z,47.44
2023-03-27T13:40:33.300Z,47.15
2023-03-27T13:44:59.189Z,48.99
2023-03-27T13:49:19.354Z,46.47
2023-03-27T13:53:42.852Z,46.47
2023-03-27T13:58:20.959Z,45.80
2023-03-27T14:02:47.218Z,46.52
2023-03-27T14:07:26.035Z,47.41
2023-03-27T14:11:51.574Z,46.58
2023-03-27T14:16:42.475Z,45.95
2023-03-27T14:20:50.145Z,44.20
2023-03-27T14:24:57.711Z,44.07
2023-03-27T14:29:10.942Z,43.95
2023-03-27T14:33:20.304Z,43.27
2023-03-27T14:37:32.091Z,44.39
2023-03-27T14:41:46.735Z,42.38
2023-03-27T14:45:53.569Z,41.39
2023-03-27T14:50:01.681Z,41.97
2023-03-27T14:54:28.806Z,42.77
2023-03-27T14:58:44.001Z,42.19
2023-03-27T15:02:50.329Z,42.42
2023-03-27T15:06:55.987Z,43.67
2023-03-27T15:11:23.368Z,43.85
2023-03-27T15:15:39.756Z,42.55
2023-03-27T15:19:48.529Z,42.67
2023-03-27T15:24:00.973Z,43.08
2023-03-27T15:28:11.570Z,43.85
2023-03-27T15:32:18.564Z,44.02
2023-03-27T15:36:28.405Z,43.66
2023-03-27T15:40:36.691Z,44.33
2023-03-27T15:44:43.617Z,44.59
2023-03-27T15:48:50.835Z,45.14
2023-03-27T15:52:57.268Z,45.27
2023-03-27T15:57:10.790Z,44.86
2023-03-27T16:01:20.013Z,45.34
2023-03-27T16:05:23.164Z,46.17
2023-03-27T16:09:29.680Z,45.74
2023-03-27T16:13:37.520Z,46.30
2023-03-27T16:17:46.570Z,46.64
2023-03-27T16:21:57.535Z,46.90
2023-03-27T16:26:02.149Z,47.21
2023-03-27T16:30:06.671Z,48.10
2023-03-27T16:34:21.944Z,48.71
2023-03-27T16:38:26.215Z,49.17
2023-03-27T16:42:29.146Z,49.46
2023-03-27T16:46:33.190Z,49.79
2023-03-27T16:50:37.531Z,49.71
2023-03-27T16:54:41.627Z,50.09
2023-03-27T16:58:44.577Z,49.28
2023-03-27T17:02:47.701Z,48.04
2023-03-27T17:06:52.209Z,48.66
2023-03-27T17:10:55.162Z,49.31
2023-03-27T17:14:58.566Z,48.83
2023-03-27T17:19:01.495Z,48.94
2023-03-27T17:23:05.832Z,49.45
2023-03-27T17:27:08.972Z,49.33
2023-03-27T17:31:11.922Z,49.67
2023-03-27T17:35:14.996Z,50.30
2023-03-27T17:39:19.443Z,50.05
2023-03-27T17:43:22.368Z,50.34
2023-03-27T17:47:25.543Z,50.75
2023-03-27T17:51:28.446Z,51.11
2023-03-27T17:55:32.738Z,51.84
2023-03-27T17:59:36.371Z,52.26
2023-03-27T18:03:39.502Z,52.20
2023-03-27T18:07:42.557Z,51.60
2023-03-27T18:11:47.138Z,51.66
2023-03-27T18:15:55.223Z,51.43
2023-03-27T18:19:58.189Z,50.94
2023-03-27T18:24:01.293Z,51.55
2023-03-27T18:28:06.367Z,52.58
2023-03-27T18:32:09.360Z,53.43
2023-03-27T18:36:12.534Z,54.17
2023-03-27T18:40:18.330Z,54.79
2023-03-27T18:44:22.618Z,55.48
2023-03-27T18:48:26.081Z,55.66
2023-03-27T18:52:29.437Z,56.02
2023-03-27T18:56:32.382Z,56.55
2023-03-27T19:00:36.684Z,56.44
2023-03-27T19:04:39.617Z,56.82
2023-03-27T19:08:45.463Z,56.90
2023-03-27T19:12:49.670Z,57.03
2023-03-27T19:17:32.036Z,56.99
2023-03-27T19:22:08.367Z,57.22
2023-03-27T19:26:17.576Z,57.20
2023-03-27T19:30:21.906Z,57.37
2023-03-27T19:34:36.428Z,57.47
2023-03-27T19:38:45.892Z,57.44
2023-03-27T19:42:49.139Z,57.54
2023-03-27T19:46:52.084Z,57.53
2023-03-27T19:51:01.440Z,57.64
2023-03-27T19:55:10.942Z,57.89
2023-03-27T19:59:20.870Z,57.84
2023-03-27T20:03:31.329Z,58.20
2023-03-27T20:07:35.787Z,58.91
2023-03-27T20:11:39.343Z,58.74
2023-03-27T20:15:43.075Z,58.88
2023-03-27T20:19:48.771Z,58.96
2023-03-27T20:23:54.843Z,58.99
2023-03-27T20:28:07.371Z,59.17
2023-03-27T20:32:10.611Z,59.22
2023-03-27T20:36:14.193Z,58.96
2023-03-27T20:40:18.877Z,59.02
2023-03-27T20:44:21.799Z,58.84
2023-03-27T20:48:25.167Z,58.87
2023-03-27T20:52:28.424Z,58.96
2023-03-27T20:56:33.284Z,58.82
2023-03-27T21:00:36.619Z,58.94
2023-03-27T21:04:39.518Z,58.91
2023-03-27T21:08:42.495Z,59.15
2023-03-27T21:12:48.440Z,59.62
2023-03-27T21:16:51.507Z,59.22
2023-03-27T21:20:57.042Z,59.15
2023-03-27T21:25:00.050Z,59.16
2023-03-27T21:29:04.700Z,59.38
2023-03-27T21:33:08.326Z,59.55
2023-03-27T21:37:11.418Z,59.54
2023-03-27T21:41:16.336Z,59.62
2023-03-27T21:45:20.662Z,59.67
2023-03-27T21:49:23.800Z,59.81
2023-03-27T21:53:26.792Z,59.94
2023-03-27T21:57:29.713Z,59.95
2023-03-27T22:01:34.076Z,60.20
2023-03-27T22:05:38.516Z,60.52
2023-03-27T22:09:41.608Z,60.71
2023-03-27T22:13:46.401Z,60.58
2023-03-27T22:17:50.950Z,60.60
2023-03-27T22:21:54.051Z,60.60
2023-03-27T22:25:57.260Z,60.45
2023-03-27T22:30:00.506Z,60.63
2023-03-27T22:34:05.324Z,60.75
2023-03-27T22:38:08.650Z,60.86
2023-03-27T22:42:11.720Z,60.76
2023-03-27T22:46:17.239Z,60.84
2023-03-27T22:50:21.806Z,61.09
2023-03-27T22:54:24.790Z,60.99
2023-03-27T22:58:28.260Z,61.07
2023-03-27T23:02:31.339Z,61.48
2023-03-27T23:06:35.821Z,61.30
2023-03-27T23:10:38.790Z,61.29
2023-03-27T23:14:41.731Z,61.25
2023-03-27T23:18:44.676Z,61.29
2023-03-27T23:22:49.372Z,61.20
2023-03-27T23:26:52.694Z,61.15
2023-03-27T23:30:58.950Z,61.13
2023-03-27T23:35:02.176Z,61.27
2023-03-27T23:39:06.548Z,61.27
2023-03-27T23:43:09.471Z,61.38
2023-03-27T23:47:12.404Z,61.45
2023-03-27T23:51:17.106Z,61.33
2023-03-27T23:55:21.382Z,61.57
2023-03-27T23:59:24.387Z,61.90
